createdAt,value
2023-01-20T00:01:25.817Z,100229.66
2023-01-20T00:03:54.538Z,100252.44
2023-01-20T00:06:22.312Z,100243.44
2023-01-20T00:08:53.021Z,100247.69
2023-01-20T00:11:20.054Z,100227.38
2023-01-20T00:13:47.097Z,100276.78
2023-01-20T00:16:14.215Z,100210.88
2023-01-20T00:18:41.755Z,100206.88
2023-01-20T00:21:12.325Z,100232.53
2023-01-20T00:23:39.613Z,100289.81
2023-01-20T00:26:09.240Z,100293.38
2023-01-20T00:28:36.358Z,100291.72
2023-01-20T00:31:16.617Z,100289.94
2023-01-20T00:33:43.952Z,100277.28
2023-01-20T00:36:11.456Z,100294.38
2023-01-20T00:38:38.275Z,100227.84
2023-01-20T00:41:05.671Z,100299.75
2023-01-20T00:43:32.401Z,100254.59
2023-01-20T00:45:59.246Z,100257.84
2023-01-20T00:48:25.965Z,100303.59
2023-01-20T00:50:52.683Z,100300.81
2023-01-20T00:53:19.385Z,100306.84
2023-01-20T00:55:46.165Z,100259.75
2023-01-20T00:58:12.870Z,100336.69
2023-01-20T01:00:39.617Z,100332.38
2023-01-20T01:03:06.606Z,100279.47
2023-01-20T01:05:34.303Z,100349.72
2023-01-20T01:08:01.037Z,100366.06
2023-01-20T01:10:27.764Z,100303.84
2023-01-20T01:12:54.470Z,100333.53
2023-01-20T01:15:21.236Z,100354.97
2023-01-20T01:17:47.992Z,100358.56
2023-01-20T01:20:15.069Z,100355.16
2023-01-20T01:22:41.754Z,100353.56
2023-01-20T01:25:08.655Z,100390.13
2023-01-20T01:27:35.688Z,100383.44
2023-01-20T01:30:02.463Z,100367.75
2023-01-20T01:32:29.177Z,100414.38
2023-01-20T01:34:55.895Z,100391.25
2023-01-20T01:37:22.709Z,100370.94
2023-01-20T01:39:49.600Z,100417.34
2023-01-20T01:42:19.106Z,100443.84
2023-01-20T01:45:10.785Z,100459.31
2023-01-20T01:47:42.877Z,100466.16
2023-01-20T01:50:14.339Z,100453.34
2023-01-20T01:52:45.635Z,100426.03
2023-01-20T01:55:14.089Z,100441.53
2023-01-20T01:57:41.446Z,100441.78
2023-01-20T02:00:10.474Z,100463.38
2023-01-20T02:02:38.660Z,100441.06
2023-01-20T02:05:06.206Z,100423.06
2023-01-20T02:07:35.183Z,100424.81
2023-01-20T02:10:02.206Z,100449.56
2023-01-20T02:12:29.657Z,100444.59
2023-01-20T02:14:59.723Z,100412.94
2023-01-20T02:17:45.302Z,100498.50
2023-01-20T02:20:49.321Z,100501.09
2023-01-20T02:23:48.349Z,100506.31
2023-01-20T02:26:35.969Z,100507.13
2023-01-20T02:29:08.538Z,100518.38
2023-01-20T02:31:59.940Z,100526.97
2023-01-20T02:34:29.749Z,100506.19
2023-01-20T02:37:05.640Z,100527.78
2023-01-20T02:39:52.711Z,100445.41
2023-01-20T02:42:24.675Z,100531.94
2023-01-20T02:45:09.222Z,100542.28
2023-01-20T02:47:51.570Z,100534.75
2023-01-20T02:50:32.763Z,100484.19
2023-01-20T02:53:03.165Z,100554.38
2023-01-20T02:55:32.954Z,100565.78
2023-01-20T02:58:08.550Z,100505.63
2023-01-20T03:00:44.556Z,100516.13
2023-01-20T03:03:16.010Z,100502.34
2023-01-20T03:05:54.794Z,100560.69
2023-01-20T03:08:24.291Z,100564.13
2023-01-20T03:10:54.609Z,100539.28
2023-01-20T03:13:29.173Z,100600.25
2023-01-20T03:16:00.380Z,100522.13
2023-01-20T03:18:29.610Z,100543.63
2023-01-20T03:20:59.579Z,100529.91
2023-01-20T03:23:30.900Z,100552.22
2023-01-20T03:25:58.633Z,100547.16
2023-01-20T03:28:26.041Z,100510.31
2023-01-20T03:30:56.206Z,100574.59
2023-01-20T03:33:23.655Z,100585.78
2023-01-20T03:35:50.978Z,100542.94
2023-01-20T03:38:17.701Z,100577.25
2023-01-20T03:41:02.549Z,100537.88
2023-01-20T03:43:39.640Z,100619.38
2023-01-20T03:46:16.134Z,100584.19
2023-01-20T03:48:53.936Z,100641.66
2023-01-20T03:51:29.714Z,100626.22
2023-01-20T03:54:01.652Z,100624.53
2023-01-20T03:56:52.929Z,100621.97
2023-01-20T03:59:22.146Z,100628.03
2023-01-20T04:01:49.704Z,100604.84
2023-01-20T04:04:18.401Z,100647.72
2023-01-20T04:06:48.149Z,100634.94
2023-01-20T04:09:20.403Z,100639.16
2023-01-20T04:11:47.226Z,100593.69
2023-01-20T04:14:13.970Z,100619.53
2023-01-20T04:16:40.935Z,100592.84
2023-01-20T04:19:07.615Z,100602.41
2023-01-20T04:21:39.140Z,100663.31
2023-01-20T04:24:15.185Z,100663.31
2023-01-20T04:26:42.018Z,100618.72
2023-01-20T04:29:11.939Z,100611.91
2023-01-20T04:31:40.273Z,100678.06
2023-01-20T04:34:07.867Z,100672.00
2023-01-20T04:36:34.565Z,100604.25
2023-01-20T04:39:01.284Z,100619.66
2023-01-20T04:41:27.978Z,100623.09
2023-01-20T04:43:54.719Z,100660.94
2023-01-20T04:46:21.580Z,100678.97
2023-01-20T04:48:48.380Z,100628.28
2023-01-20T04:51:15.426Z,100657.53
2023-01-20T04:53:42.316Z,100657.59
2023-01-20T04:56:13.622Z,100642.09
2023-01-20T04:58:41.420Z,100621.53
2023-01-20T05:01:09.235Z,100703.94
2023-01-20T05:03:35.977Z,100653.28
2023-01-20T05:06:02.725Z,100672.19
2023-01-20T05:08:29.446Z,100708.31
2023-01-20T05:10:56.128Z,100678.28
2023-01-20T05:13:22.874Z,100673.94
2023-01-20T05:15:49.584Z,100667.97
2023-01-20T05:18:16.332Z,100716.94
2023-01-20T05:20:46.120Z,100724.66
2023-01-20T05:23:12.909Z,100698.97
2023-01-20T05:25:39.875Z,100703.25
2023-01-20T05:28:06.780Z,100687.81
2023-01-20T05:30:33.704Z,100727.31
2023-01-20T05:33:00.516Z,100689.53
2023-01-20T05:35:27.209Z,100690.44
2023-01-20T05:37:54.924Z,100772.88
2023-01-20T05:40:22.142Z,100730.81
2023-01-20T05:42:49.247Z,100753.16
2023-01-20T05:45:16.659Z,100778.97
2023-01-20T05:47:43.687Z,100736.91
2023-01-20T05:50:11.239Z,100757.47
2023-01-20T05:52:37.961Z,100725.72
2023-01-20T05:55:05.309Z,100724.00
2023-01-20T05:57:32.015Z,100761.78
2023-01-20T05:59:58.692Z,100762.66
2023-01-20T06:02:25.503Z,100750.69
2023-01-20T06:04:52.324Z,100754.94
2023-01-20T06:07:19.010Z,100730.88
2023-01-20T06:09:45.815Z,100794.50
2023-01-20T06:12:12.667Z,100784.16
2023-01-20T06:14:39.393Z,100736.88
2023-01-20T06:17:06.045Z,100778.19
2023-01-20T06:19:32.774Z,100822.00
2023-01-20T06:21:59.485Z,100813.41
2023-01-20T06:24:26.179Z,100796.28
2023-01-20T06:26:52.934Z,100797.09
2023-01-20T06:29:19.717Z,100816.03
2023-01-20T06:31:47.533Z,100811.75
2023-01-20T06:34:14.503Z,100842.72
2023-01-20T06:36:41.182Z,100816.06
2023-01-20T06:39:07.990Z,100827.25
2023-01-20T06:41:34.735Z,100829.88
2023-01-20T06:44:01.479Z,100821.25
2023-01-20T06:46:28.232Z,100798.88
2023-01-20T06:49:00.841Z,100801.50
2023-01-20T06:51:29.475Z,100833.31
2023-01-20T06:53:56.415Z,100884.94
2023-01-20T06:56:23.732Z,100918.53
2023-01-20T06:58:50.771Z,100893.56
2023-01-20T07:01:29.933Z,100830.78
2023-01-20T07:03:56.927Z,100890.09
2023-01-20T07:06:26.583Z,100863.44
2023-01-20T07:08:53.526Z,100894.44
2023-01-20T07:11:20.420Z,100881.53
2023-01-20T07:13:47.136Z,100880.69
2023-01-20T07:16:15.884Z,100927.19
2023-01-20T07:18:44.422Z,100922.00
2023-01-20T07:21:12.019Z,100919.41
2023-01-20T07:23:38.868Z,100895.31
2023-01-20T07:26:08.946Z,100924.59
2023-01-20T07:28:36.340Z,100947.81
2023-01-20T07:31:08.419Z,100925.44
2023-01-20T07:33:35.885Z,100940.09
2023-01-20T07:36:02.652Z,100904.78
2023-01-20T07:38:30.157Z,100934.09
2023-01-20T07:41:04.054Z,100972.84
2023-01-20T07:43:31.679Z,100891.03
2023-01-20T07:46:04.225Z,100945.25
2023-01-20T07:48:33.002Z,100918.59
2023-01-20T07:51:03.217Z,100983.16
2023-01-20T07:53:31.139Z,100937.50
2023-01-20T07:56:01.730Z,100958.19
2023-01-20T07:58:29.451Z,100965.06
2023-01-20T08:00:56.933Z,101009.00
2023-01-20T08:03:26.002Z,100979.72
2023-01-20T08:05:53.941Z,100964.19
2023-01-20T08:08:20.643Z,100988.31
2023-01-20T08:10:54.189Z,100986.63
2023-01-20T08:13:21.009Z,100968.50
2023-01-20T08:15:47.706Z,101008.16
2023-01-20T08:18:14.400Z,101037.44
2023-01-20T08:20:41.525Z,101061.56
2023-01-20T08:23:08.292Z,101021.06
2023-01-20T08:25:34.970Z,101045.16
2023-01-20T08:28:01.911Z,101003.75
2023-01-20T08:30:29.475Z,101058.97
2023-01-20T08:32:56.481Z,101058.94
2023-01-20T08:35:23.332Z,101017.53
2023-01-20T08:37:50.126Z,101020.16
2023-01-20T08:40:16.919Z,101031.34
2023-01-20T08:42:43.636Z,101013.25
2023-01-20T08:45:10.577Z,101056.34
2023-01-20T08:47:39.597Z,101095.16
2023-01-20T08:50:07.533Z,101072.75
2023-01-20T08:52:34.314Z,101012.38
2023-01-20T09:07:18.157Z,101086.59
2023-01-20T09:09:45.027Z,101078.84
2023-01-20T09:12:11.777Z,101074.50
2023-01-20T09:14:39.427Z,101069.34
2023-01-20T09:17:06.535Z,101098.66
2023-01-20T09:19:33.281Z,101118.47
2023-01-20T09:22:00.081Z,101077.09
2023-01-20T09:24:26.743Z,101113.28
2023-01-20T09:26:53.553Z,101064.13
2023-01-20T09:29:21.406Z,101154.69
2023-01-20T09:31:52.825Z,101154.69
2023-01-20T09:34:25.160Z,101160.72
2023-01-20T09:36:52.850Z,101164.19
2023-01-20T09:39:38.451Z,101113.28
2023-01-20T09:42:54.795Z,101165.03
2023-01-20T09:45:26.446Z,101074.50
2023-01-20T09:48:05.697Z,101119.31
2023-01-20T09:51:05.533Z,101128.81
2023-01-20T09:53:50.819Z,101187.47
2023-01-20T09:56:20.120Z,101168.50
2023-01-20T09:59:01.227Z,101155.56
2023-01-20T10:01:30.733Z,101196.94
2023-01-20T10:04:06.391Z,101205.59
2023-01-20T10:06:39.609Z,101182.28
2023-01-20T10:09:13.481Z,101202.13
2023-01-20T10:11:43.478Z,101159.00
2023-01-20T10:14:21.999Z,101207.28
2023-01-20T10:17:06.777Z,101168.50
2023-01-20T10:19:49.759Z,101173.66
2023-01-20T10:22:23.456Z,101218.50
2023-01-20T10:25:02.309Z,101164.16
2023-01-20T10:27:30.237Z,101149.50
2023-01-20T10:30:13.730Z,101216.78
2023-01-20T10:33:18.396Z,101177.97
2023-01-20T10:35:50.867Z,101178.81
2023-01-20T10:38:43.997Z,101234.00
2023-01-20T10:41:24.294Z,101240.06
2023-01-20T10:43:51.081Z,101209.88
2023-01-20T10:46:33.088Z,101239.16
2023-01-20T10:49:16.873Z,101217.59
2023-01-20T10:52:05.570Z,101215.00
2023-01-20T10:54:58.297Z,101250.38
2023-01-20T10:57:25.686Z,101184.81
2023-01-20T10:59:57.585Z,101216.75
2023-01-20T11:02:30.695Z,101228.84
2023-01-20T11:05:29.898Z,101262.47
2023-01-20T11:07:59.672Z,101190.03
2023-01-20T11:10:29.274Z,101249.56
2023-01-20T11:12:59.732Z,101244.34
2023-01-20T11:15:32.579Z,101260.72
2023-01-20T11:18:14.467Z,101268.50
2023-01-20T11:20:47.337Z,101274.53
2023-01-20T11:23:32.480Z,101225.38
2023-01-20T11:26:02.298Z,101226.28
2023-01-20T11:28:57.242Z,101203.81
2023-01-20T11:31:54.782Z,101281.44
2023-01-20T11:34:29.288Z,101289.22
2023-01-20T11:37:05.310Z,101288.31
2023-01-20T11:39:56.257Z,101286.63
2023-01-20T11:42:31.288Z,101285.69
2023-01-20T11:45:20.315Z,101235.66
2023-01-20T11:48:03.561Z,101302.09
2023-01-20T11:50:45.933Z,101248.63
2023-01-20T11:53:19.006Z,101233.06
2023-01-20T11:55:52.757Z,101315.03
2023-01-20T11:58:23.636Z,101271.91
2023-01-20T12:00:59.292Z,101328.84
2023-01-20T12:03:52.458Z,101327.06
2023-01-20T12:06:36.557Z,101326.22
2023-01-20T12:09:10.382Z,101297.66
2023-01-20T12:11:42.974Z,101288.19
2023-01-20T12:14:31.214Z,101342.53
2023-01-20T12:17:14.566Z,101287.44
2023-01-20T12:20:05.543Z,101360.78
2023-01-20T12:22:41.380Z,101362.53
2023-01-20T12:25:29.824Z,101375.53
2023-01-20T12:28:09.375Z,101325.47
2023-01-20T12:30:49.963Z,101345.34
2023-01-20T12:33:29.887Z,101382.44
2023-01-20T12:36:03.009Z,101342.75
2023-01-20T12:38:32.518Z,101389.28
2023-01-20T12:41:07.537Z,101336.66
2023-01-20T12:43:47.936Z,101330.66
2023-01-20T12:46:55.119Z,101398.00
2023-01-20T12:49:40.452Z,101407.44
2023-01-20T12:52:25.892Z,101410.03
2023-01-20T12:55:11.089Z,101418.72
2023-01-20T12:58:02.929Z,101374.69
2023-01-20T13:01:12.992Z,101389.31
2023-01-20T13:04:03.368Z,101387.63
2023-01-20T13:06:55.886Z,101375.50
2023-01-20T13:09:38.943Z,101423.81
2023-01-20T13:12:24.333Z,101432.47
2023-01-20T13:15:14.865Z,101423.03
2023-01-20T13:18:05.189Z,101448.09
2023-01-20T13:20:32.145Z,101402.34
2023-01-20T13:23:03.715Z,101403.22
2023-01-20T13:25:31.484Z,101450.69
2023-01-20T13:27:58.529Z,101433.44
2023-01-20T13:30:48.229Z,101439.50
2023-01-20T13:33:30.549Z,101442.09
2023-01-20T13:35:57.857Z,101406.72
2023-01-20T13:38:30.707Z,101474.06
2023-01-20T13:41:03.349Z,101436.06
2023-01-20T13:43:35.027Z,101405.84
2023-01-20T13:46:17.653Z,101478.41
2023-01-20T13:49:15.611Z,101472.31
2023-01-20T13:51:45.119Z,101442.97
2023-01-20T13:54:29.105Z,101464.59
2023-01-20T13:57:20.579Z,101487.94
2023-01-20T13:59:47.252Z,101443.88
2023-01-20T14:02:22.364Z,101426.59
2023-01-20T14:04:49.722Z,101467.22
2023-01-20T14:07:27.420Z,101497.41
2023-01-20T14:09:59.236Z,101493.97
2023-01-20T14:12:26.410Z,101467.19
2023-01-20T14:14:53.527Z,101508.66
2023-01-20T14:17:23.632Z,101508.63
2023-01-20T14:19:53.955Z,101494.81
2023-01-20T14:22:28.891Z,101476.66
2023-01-20T14:25:01.875Z,101490.47
2023-01-20T14:27:32.088Z,101500.84
2023-01-20T14:30:15.504Z,101429.13
2023-01-20T14:32:42.609Z,101461.94
2023-01-20T14:35:30.010Z,101445.56
2023-01-20T14:37:57.472Z,101501.66
2023-01-20T14:40:29.532Z,101509.47
2023-01-20T14:42:59.227Z,101524.16
2023-01-20T14:45:29.334Z,101474.06
2023-01-20T14:47:57.802Z,101521.59
2023-01-20T14:50:25.255Z,101481.88
2023-01-20T14:52:52.191Z,101463.72
2023-01-20T14:55:29.153Z,101548.44
2023-01-20T14:57:55.931Z,101469.78
2023-01-20T15:00:26.076Z,101538.94
2023-01-20T15:03:10.407Z,101476.72
2023-01-20T15:05:41.985Z,101488.81
2023-01-20T15:08:11.416Z,101557.97
2023-01-20T15:10:39.253Z,101522.53
2023-01-20T15:13:23.607Z,101513.88
2023-01-20T15:15:50.403Z,101530.31
2023-01-20T15:18:22.034Z,101576.16
2023-01-20T15:21:15.624Z,101558.84
2023-01-20T15:23:45.842Z,101537.22
2023-01-20T15:26:28.444Z,101579.59
2023-01-20T15:28:56.195Z,101565.75
2023-01-20T15:31:23.897Z,101589.97
2023-01-20T15:33:50.801Z,101541.53
2023-01-20T15:36:26.752Z,101598.59
2023-01-20T15:38:53.911Z,101595.13
2023-01-20T15:41:20.790Z,101573.44
2023-01-20T15:43:49.250Z,101619.28
2023-01-20T15:46:17.613Z,101603.66
2023-01-20T15:48:45.253Z,101561.19
2023-01-20T15:51:17.782Z,101594.91
2023-01-20T15:53:45.483Z,101613.06
2023-01-20T15:56:28.155Z,101591.41
2023-01-20T15:58:55.540Z,101614.72
2023-01-20T16:01:25.349Z,101592.97
2023-01-20T16:03:53.206Z,101616.31
2023-01-20T16:06:22.106Z,101612.78
2023-01-20T16:08:50.225Z,101578.09
2023-01-20T16:11:18.719Z,101572.03
2023-01-20T16:13:45.731Z,101548.59
2023-01-20T16:16:23.871Z,101578.06
2023-01-20T16:18:50.700Z,101624.84
2023-01-20T16:21:19.355Z,101616.94
2023-01-20T16:23:46.113Z,101571.88
2023-01-20T16:26:23.157Z,101609.94
2023-01-20T16:28:51.063Z,101580.41
2023-01-20T16:31:18.380Z,101579.47
2023-01-20T16:33:45.249Z,101580.28
2023-01-20T16:36:17.502Z,101604.50
2023-01-20T16:38:45.019Z,101625.28
2023-01-20T16:41:21.657Z,101635.59
2023-01-20T16:43:49.540Z,101641.50
2023-01-20T16:46:24.503Z,101636.22
2023-01-20T16:48:51.585Z,101643.09
2023-01-20T16:51:20.788Z,101648.19
2023-01-20T16:53:48.240Z,101596.16
2023-01-20T16:56:20.514Z,101614.25
2023-01-20T16:58:48.720Z,101659.31
2023-01-20T17:01:15.697Z,101644.38
2023-01-20T17:03:42.781Z,101626.88
2023-01-20T17:06:18.180Z,101651.03
2023-01-20T17:08:50.137Z,101678.78
2023-01-20T17:11:22.157Z,101699.47
2023-01-20T17:13:49.034Z,101661.25
2023-01-20T17:16:16.406Z,101681.00
2023-01-20T17:18:46.201Z,101635.03
2023-01-20T17:21:14.014Z,101705.25
2023-01-20T17:23:41.123Z,101681.69
2023-01-20T17:26:08.781Z,101730.13
2023-01-20T17:28:36.048Z,101727.47
2023-01-20T17:31:06.885Z,101729.19
2023-01-20T17:33:34.441Z,101735.19
2023-01-20T17:36:03.324Z,101704.84
2023-01-20T17:38:32.309Z,101682.31
2023-01-20T17:41:03.776Z,101723.94
2023-01-20T17:43:34.633Z,101715.09
2023-01-20T17:46:01.643Z,101731.53
2023-01-20T17:48:28.511Z,101710.44
2023-01-20T17:50:59.500Z,101707.69
2023-01-20T17:53:26.866Z,101739.78
2023-01-20T17:56:06.635Z,101681.50
2023-01-20T17:58:38.064Z,101677.84
2023-01-20T18:01:16.801Z,101755.16
2023-01-20T18:03:45.048Z,101726.28
2023-01-20T18:06:13.384Z,101719.41
2023-01-20T18:08:40.796Z,101761.72
2023-01-20T18:11:15.085Z,101763.47
2023-01-20T18:13:42.659Z,101772.22
2023-01-20T18:16:12.564Z,101746.72
2023-01-20T18:18:44.443Z,101766.72
2023-01-20T18:21:16.482Z,101748.19
2023-01-20T18:23:44.090Z,101762.94
2023-01-20T18:26:13.826Z,101737.72
2023-01-20T18:28:41.602Z,101747.16
2023-01-20T18:31:14.173Z,101791.59
2023-01-20T18:33:53.815Z,101753.53
2023-01-20T18:36:23.682Z,101729.03
2023-01-20T18:38:51.037Z,101721.25
2023-01-20T18:41:18.523Z,101742.75
2023-01-20T18:43:45.743Z,101786.19
2023-01-20T18:46:12.850Z,101748.72
2023-01-20T18:48:41.035Z,101795.69
2023-01-20T18:51:10.779Z,101746.00
2023-01-20T18:53:37.894Z,101773.88
2023-01-20T18:56:08.825Z,101797.19
2023-01-20T18:58:37.528Z,101753.47
2023-01-20T19:01:06.293Z,101803.97
2023-01-20T19:03:34.582Z,101761.94
2023-01-20T19:06:13.419Z,101770.66
2023-01-20T19:08:41.940Z,101814.97
2023-01-20T19:11:13.740Z,101821.00
2023-01-20T19:13:41.578Z,101790.41
2023-01-20T19:16:10.588Z,101773.03
2023-01-20T19:18:37.657Z,101839.75
2023-01-20T19:21:06.229Z,101851.78
2023-01-20T19:23:33.246Z,101805.75
2023-01-20T19:26:05.384Z,101818.03
2023-01-20T19:28:32.307Z,101797.34
2023-01-20T19:31:09.395Z,101853.22
2023-01-20T19:33:37.340Z,101835.06
2023-01-20T19:36:06.968Z,101788.91
2023-01-20T19:38:35.199Z,101860.19
2023-01-20T19:41:13.088Z,101855.69
2023-01-20T19:43:40.608Z,101849.38
2023-01-20T19:46:10.752Z,101861.34
2023-01-20T19:48:38.017Z,101854.13
2023-01-20T19:51:10.076Z,101884.44
2023-01-20T19:53:37.822Z,101914.16
2023-01-20T19:56:09.832Z,101879.84
2023-01-20T19:58:37.253Z,101898.06
2023-01-20T20:01:13.217Z,101861.91
2023-01-20T20:03:40.377Z,101855.94
2023-01-20T20:06:08.822Z,101889.97
2023-01-20T20:08:39.108Z,101822.31
2023-01-20T20:11:10.559Z,101850.75
2023-01-20T20:13:37.248Z,101838.72
2023-01-20T20:16:04.838Z,101896.75
2023-01-20T20:18:32.189Z,101889.81
2023-01-20T20:20:59.401Z,101866.94
2023-01-20T20:23:26.545Z,101874.00
2023-01-20T20:25:58.048Z,101833.16
2023-01-20T20:28:26.900Z,101912.34
2023-01-20T20:30:57.576Z,101889.47
2023-01-20T20:33:24.825Z,101843.50
2023-01-20T20:35:51.894Z,101855.75
2023-01-20T20:38:18.834Z,101896.72
2023-01-20T20:40:45.637Z,101869.78
2023-01-20T20:43:12.339Z,101891.69
2023-01-20T20:45:39.105Z,101882.78
2023-01-20T20:48:05.977Z,101916.66
2023-01-20T20:50:33.855Z,101915.06
2023-01-20T20:53:00.573Z,101887.84
2023-01-20T20:55:28.951Z,101869.59
2023-01-20T20:57:56.332Z,101847.75
2023-01-20T21:00:25.182Z,101839.00
2023-01-20T21:02:51.928Z,101918.94
2023-01-20T21:05:19.214Z,101869.31
2023-01-20T21:07:46.347Z,101910.97
2023-01-20T21:10:15.874Z,101893.50
2023-01-20T21:12:44.022Z,101884.72
2023-01-20T21:15:11.712Z,101940.63
2023-01-20T21:17:38.816Z,101880.78
2023-01-20T21:20:07.360Z,101950.53
2023-01-20T21:22:34.286Z,101893.25
2023-01-20T21:25:00.980Z,101909.94
2023-01-20T21:27:27.739Z,101912.47
2023-01-20T21:29:54.434Z,101870.25
2023-01-20T21:32:21.148Z,101915.59
2023-01-20T21:34:47.846Z,101901.91
2023-01-20T21:37:14.680Z,101937.66
2023-01-20T21:39:41.360Z,101885.53
2023-01-20T21:42:09.230Z,101950.88
2023-01-20T21:44:36.578Z,101958.63
2023-01-20T21:47:08.048Z,101934.44
2023-01-20T21:49:53.543Z,101924.84
2023-01-20T21:52:40.648Z,101973.69
2023-01-20T21:55:13.711Z,101918.81
2023-01-20T21:57:40.477Z,101953.84
2023-01-20T22:00:10.064Z,101961.75
2023-01-20T22:02:36.819Z,101967.84
2023-01-20T22:05:03.846Z,101959.97
2023-01-20T22:07:30.616Z,101905.22
2023-01-20T22:09:58.303Z,101978.28
2023-01-20T22:12:25.254Z,101932.31
2023-01-20T22:14:51.912Z,101939.97
2023-01-20T22:17:18.765Z,101925.97
2023-01-20T22:19:45.867Z,101913.69
2023-01-20T22:22:15.004Z,101929.31
2023-01-20T22:24:42.166Z,101950.81
2023-01-20T22:27:09.011Z,101915.06
2023-01-20T22:29:35.712Z,101991.59
2023-01-20T22:32:04.194Z,101936.75
2023-01-20T22:34:31.111Z,101968.94
2023-01-20T22:36:58.086Z,101956.59
2023-01-20T22:39:24.776Z,101955.63
2023-01-20T22:41:51.495Z,101981.44
2023-01-20T22:44:18.209Z,101952.78
2023-01-20T22:46:44.908Z,101975.31
2023-01-20T22:49:12.807Z,101978.56
2023-01-20T22:51:39.612Z,101998.53
2023-01-20T22:54:07.611Z,101974.97
2023-01-20T22:56:34.399Z,102002.53
2023-01-20T22:59:01.183Z,101999.94
2023-01-20T23:01:33.568Z,102018.03
2023-01-20T23:04:03.443Z,101987.38
2023-01-20T23:06:33.875Z,102021.13
2023-01-20T23:09:03.271Z,102027.28
2023-01-20T23:11:30.098Z,102028.84
2023-01-20T23:13:56.788Z,101998.44
2023-01-20T23:16:23.628Z,101946.06
2023-01-20T23:18:51.526Z,101983.38
2023-01-20T23:21:20.029Z,102019.94
2023-01-20T23:23:46.958Z,101971.91
2023-01-20T23:26:16.933Z,101986.69
2023-01-20T23:28:45.245Z,101971.59
2023-01-20T23:31:14.844Z,102039.59
2023-01-20T23:33:44.187Z,101988.09
2023-01-20T23:36:16.263Z,102040.19
2023-01-20T23:38:43.987Z,102032.03
2023-01-20T23:41:12.083Z,101992.78
2023-01-20T23:43:38.895Z,102011.91
2023-01-20T23:46:07.058Z,102015.09
2023-01-20T23:48:34.972Z,101962.66
2023-01-20T23:51:02.679Z,102042.84
2023-01-20T23:53:31.667Z,102035.91
2023-01-20T23:56:03.488Z,101965.06
2023-01-20T23:58:30.834Z,101992.81
